createdAt,value
2018-12-02T00:00:41.770Z,100158.92
2018-12-02T00:03:09.866Z,100153.63
2018-12-02T00:05:38.323Z,100149.09
2018-12-02T00:08:28.153Z,100140.05
2018-12-02T00:10:57.097Z,100139.09
2018-12-02T00:13:25.164Z,100128.81
2018-12-02T00:15:53.267Z,100131.16
2018-12-02T00:18:22.271Z,100126.16
2018-12-02T00:20:52.455Z,100129.59
2018-12-02T00:23:20.932Z,100123.45
2018-12-02T00:25:49.007Z,100127.91
2018-12-02T00:28:17.050Z,100117.16
2018-12-02T00:30:45.187Z,100115.96
2018-12-02T00:33:13.210Z,100116.97
2018-12-02T00:35:41.425Z,100108.45
2018-12-02T00:38:09.574Z,100102.71
2018-12-02T00:40:37.904Z,100102.61
2018-12-02T00:43:09.964Z,100110.19
2018-12-02T00:45:38.096Z,100098.72
2018-12-02T00:48:06.798Z,100097.84
2018-12-02T00:50:34.894Z,100088.31
2018-12-02T00:53:03.066Z,100079.40
2018-12-02T00:55:33.435Z,100080.98
2018-12-02T00:58:01.610Z,100081.34
2018-12-02T01:00:29.725Z,100070.77
2018-12-02T01:02:57.941Z,100067.25
2018-12-02T01:05:26.046Z,100051.80
2018-12-02T01:07:54.181Z,100062.11
2018-12-02T01:10:22.747Z,100042.72
2018-12-02T01:12:52.456Z,100054.66
2018-12-02T01:15:21.266Z,100051.50
2018-12-02T01:17:54.517Z,100057.11
2018-12-02T01:20:23.046Z,100052.02
2018-12-02T01:22:51.151Z,100047.64
2018-12-02T01:25:19.322Z,100043.99
2018-12-02T01:27:48.269Z,100037.20
2018-12-02T01:30:23.379Z,100045.94
2018-12-02T01:32:52.996Z,100036.97
2018-12-02T01:35:21.328Z,100036.75
2018-12-02T01:37:50.502Z,100040.98
2018-12-02T01:40:20.103Z,100036.97
2018-12-02T01:42:48.489Z,100038.73
2018-12-02T01:45:19.467Z,100030.37
2018-12-02T01:50:57.141Z,100033.25
2018-12-02T01:53:26.174Z,100024.30
2018-12-02T01:55:54.320Z,100026.95
2018-12-02T01:58:22.525Z,100027.59
2018-12-02T02:00:50.629Z,100021.66
2018-12-02T02:03:18.813Z,100009.14
2018-12-02T02:05:46.949Z,100005.02
2018-12-02T02:08:15.115Z,100003.91
2018-12-02T02:10:44.378Z,99999.78
2018-12-02T02:13:12.490Z,99999.95
2018-12-02T02:15:40.622Z,99993.34
2018-12-02T02:18:08.802Z,99980.13
2018-12-02T02:20:36.972Z,99985.03
2018-12-02T02:23:05.191Z,99985.59
2018-12-02T02:25:33.377Z,99976.59
2018-12-02T02:28:01.451Z,99969.34
2018-12-02T02:30:29.921Z,99966.02
2018-12-02T02:33:01.328Z,99969.97
2018-12-02T02:35:29.494Z,99962.45
2018-12-02T02:37:58.008Z,99960.33
2018-12-02T02:40:26.780Z,99956.24
2018-12-02T02:42:55.193Z,99948.22
2018-12-02T02:45:23.298Z,99934.95
2018-12-02T02:47:51.389Z,99934.33
2018-12-02T02:50:20.166Z,99925.20
2018-12-02T02:52:51.984Z,99921.05
2018-12-02T02:55:21.167Z,99918.95
2018-12-02T02:57:49.303Z,99930.44
2018-12-02T03:00:20.757Z,99932.67
2018-12-02T03:02:48.925Z,99926.29
2018-12-02T03:05:17.170Z,99916.27
2018-12-02T03:07:45.271Z,99914.63
2018-12-02T03:10:14.714Z,99905.62
2018-12-02T03:12:43.171Z,99903.58
2018-12-02T03:15:11.944Z,99897.50
2018-12-02T03:17:41.389Z,99901.71
2018-12-02T03:20:10.132Z,99898.84
2018-12-02T03:22:38.296Z,99896.03
2018-12-02T03:25:09.288Z,99884.31
2018-12-02T03:27:37.730Z,99884.36
2018-12-02T03:30:19.341Z,99880.49
2018-12-02T03:32:47.756Z,99883.55
2018-12-02T03:35:16.678Z,99871.87
2018-12-02T03:37:44.773Z,99871.34
2018-12-02T03:40:37.653Z,99869.13
2018-12-02T03:43:08.273Z,99872.94
2018-12-02T03:48:18.675Z,99858.66
2018-12-02T03:53:36.604Z,99850.55
2018-12-02T03:56:05.872Z,99848.25
2018-12-02T03:58:34.999Z,99847.67
2018-12-02T04:01:03.478Z,99841.63
2018-12-02T04:03:32.032Z,99841.66
2018-12-02T04:06:00.756Z,99833.90
2018-12-02T04:08:28.862Z,99830.39
2018-12-02T04:11:00.927Z,99829.11
2018-12-02T04:13:29.562Z,99819.19
2018-12-02T04:15:57.698Z,99819.30
2018-12-02T04:18:26.401Z,99810.09
2018-12-02T04:20:55.885Z,99803.59
2018-12-02T04:23:24.164Z,99805.36
2018-12-02T04:25:52.481Z,99802.20
2018-12-02T04:28:21.817Z,99797.13
2018-12-02T04:30:50.778Z,99800.02
2018-12-02T04:33:18.980Z,99788.19
2018-12-02T04:35:47.141Z,99790.95
2018-12-02T04:38:16.693Z,99790.00
2018-12-02T04:40:45.068Z,99793.55
2018-12-02T04:43:13.320Z,99794.70
2018-12-02T04:45:41.674Z,99797.25
2018-12-02T04:48:11.083Z,99795.77
2018-12-02T04:50:41.201Z,99790.99
2018-12-02T04:53:10.233Z,99782.39
2018-12-02T04:55:42.411Z,99780.91
2018-12-02T04:58:13.868Z,99769.88
2018-12-02T05:00:43.746Z,99768.39
2018-12-02T05:03:12.456Z,99763.04
2018-12-02T05:05:40.795Z,99765.14
2018-12-02T05:08:13.528Z,99760.73
2018-12-02T05:10:43.556Z,99756.08
2018-12-02T05:13:12.049Z,99759.48
2018-12-02T05:15:40.780Z,99748.33
2018-12-02T05:18:12.969Z,99743.80
2018-12-02T05:24:01.600Z,99750.21
2018-12-02T05:26:32.537Z,99739.85
2018-12-02T05:29:01.708Z,99736.41
2018-12-02T05:31:31.863Z,99736.14
2018-12-02T05:34:00.168Z,99723.86
2018-12-02T05:36:28.580Z,99720.59
2018-12-02T06:02:48.528Z,99675.81
2018-12-02T06:05:22.487Z,99679.97
2018-12-02T06:07:53.669Z,99674.66
2018-12-02T06:13:13.654Z,99673.61
2018-12-02T06:15:43.765Z,99665.36
2018-12-02T06:20:48.127Z,99645.38
2018-12-02T06:23:16.418Z,99647.70
2018-12-02T06:25:57.974Z,99646.20
2018-12-02T06:28:28.727Z,99634.82
2018-12-02T06:30:56.932Z,99635.16
2018-12-02T06:39:15.572Z,99617.66
2018-12-02T06:41:44.588Z,99619.30
2018-12-02T06:44:12.774Z,99612.31
2018-12-02T06:46:41.793Z,99610.25
2018-12-02T06:49:09.999Z,99611.30
2018-12-02T06:51:38.315Z,99608.25
2018-12-02T06:56:43.776Z,99611.64
2018-12-02T06:59:17.802Z,99607.45
2018-12-02T07:01:53.835Z,99613.36
2018-12-02T07:04:23.355Z,99606.41
2018-12-02T07:06:54.820Z,99601.89
2018-12-02T07:09:22.998Z,99609.31
2018-12-02T07:11:51.326Z,99619.75
2018-12-02T07:14:19.435Z,99615.44
2018-12-02T07:16:48.432Z,99617.08
2018-12-02T07:19:18.911Z,99615.22
2018-12-02T07:21:52.132Z,99615.58
2018-12-02T07:24:27.700Z,99622.86
2018-12-02T07:26:59.895Z,99618.70
2018-12-02T07:29:28.692Z,99617.65
2018-12-02T07:31:56.974Z,99613.44
2018-12-02T07:34:41.190Z,99619.75
2018-12-02T07:37:26.212Z,99623.09
2018-12-02T07:40:21.198Z,99617.53
2018-12-02T07:42:53.411Z,99618.69
2018-12-02T07:45:23.793Z,99618.42
2018-12-02T07:47:52.785Z,99624.12
2018-12-02T07:53:19.509Z,99631.89
2018-12-02T07:55:50.879Z,99628.98
2018-12-02T07:58:19.007Z,99625.41
2018-12-02T08:00:48.007Z,99626.89
2018-12-02T08:03:30.199Z,99628.50
2018-12-02T08:06:53.865Z,99632.79
2018-12-02T08:09:22.782Z,99635.34
2018-12-02T08:11:52.132Z,99630.13
2018-12-02T08:14:20.290Z,99628.95
2018-12-02T08:16:48.352Z,99622.92
2018-12-02T08:19:16.404Z,99631.64
2018-12-02T08:21:44.519Z,99639.41
2018-12-02T08:24:12.622Z,99636.34
2018-12-02T08:26:41.569Z,99635.30
2018-12-02T08:29:09.668Z,99644.70
2018-12-02T08:31:37.819Z,99644.25
2018-12-02T08:34:05.879Z,99641.42
2018-12-02T08:36:34.026Z,99634.58
2018-12-02T08:39:02.116Z,99645.03
2018-12-02T08:41:30.627Z,99642.20
2018-12-02T08:43:59.019Z,99649.64
2018-12-02T08:46:27.253Z,99652.42
2018-12-02T08:48:55.339Z,99652.33
2018-12-02T08:51:23.433Z,99657.19
2018-12-02T08:53:51.511Z,99662.02
2018-12-02T08:56:19.619Z,99660.66
2018-12-02T08:58:48.784Z,99662.98
2018-12-02T09:01:16.873Z,99667.50
2018-12-02T09:03:44.955Z,99662.84
2018-12-02T09:06:13.102Z,99672.56
2018-12-02T09:08:41.326Z,99661.34
2018-12-02T09:11:10.304Z,99678.95
2018-12-02T09:13:38.398Z,99671.69
2018-12-02T09:16:06.487Z,99672.64
2018-12-02T09:18:34.551Z,99677.92
2018-12-02T09:21:02.642Z,99676.05
2018-12-02T09:23:30.754Z,99678.76
2018-12-02T09:25:59.068Z,99682.16
2018-12-02T09:28:27.153Z,99678.45
2018-12-02T09:30:55.326Z,99686.22
2018-12-02T09:33:24.520Z,99689.09
2018-12-02T09:35:52.630Z,99696.53
2018-12-02T09:38:20.796Z,99698.03
2018-12-02T09:40:48.853Z,99695.71
2018-12-02T09:43:17.091Z,99701.23
2018-12-02T09:45:45.731Z,99702.78
2018-12-02T09:48:14.385Z,99705.07
2018-12-02T09:50:42.477Z,99701.81
2018-12-02T09:53:10.596Z,99708.61
2018-12-02T09:55:40.716Z,99708.01
2018-12-02T09:58:10.649Z,99713.86
2018-12-02T10:00:38.851Z,99710.48
2018-12-02T10:03:06.858Z,99710.40
2018-12-02T10:05:35.655Z,99717.04
2018-12-02T10:08:03.747Z,99712.91
2018-12-02T10:10:32.052Z,99717.80
2018-12-02T10:13:02.675Z,99730.75
2018-12-02T10:15:31.688Z,99721.09
2018-12-02T10:17:59.744Z,99716.06
2018-12-02T10:20:28.777Z,99720.71
2018-12-02T10:22:56.841Z,99717.95
2018-12-02T10:25:24.890Z,99723.97
2018-12-02T10:27:53.005Z,99719.36
2018-12-02T10:30:22.691Z,99716.00
2018-12-02T10:32:51.073Z,99714.45
2018-12-02T10:35:19.108Z,99717.81
2018-12-02T10:37:48.439Z,99716.06
2018-12-02T10:40:16.933Z,99719.00
2018-12-02T10:42:45.595Z,99716.28
2018-12-02T10:45:15.168Z,99707.78
2018-12-02T10:47:43.314Z,99713.53
2018-12-02T10:50:12.124Z,99716.14
2018-12-02T10:52:41.095Z,99718.11
2018-12-02T10:55:11.115Z,99715.89
2018-12-02T10:57:39.683Z,99711.48
2018-12-02T11:00:10.629Z,99722.77
2018-12-02T11:02:42.935Z,99722.11
2018-12-02T11:08:23.373Z,99729.83
2018-12-02T11:10:57.000Z,99730.31
2018-12-02T11:13:27.479Z,99744.48
2018-12-02T11:15:59.280Z,99747.28
2018-12-02T11:18:28.157Z,99735.80
2018-12-02T11:20:56.300Z,99749.14
2018-12-02T11:23:24.424Z,99743.41
2018-12-02T11:25:52.618Z,99755.33
2018-12-02T11:28:20.665Z,99755.11
2018-12-02T11:30:48.821Z,99757.07
2018-12-02T11:33:16.861Z,99765.22
2018-12-02T11:35:47.147Z,99761.27
2018-12-02T11:38:20.816Z,99764.98
2018-12-02T11:40:50.707Z,99759.77
2018-12-02T11:43:18.748Z,99770.11
2018-12-02T11:45:46.895Z,99767.32
2018-12-02T11:48:15.993Z,99773.34
2018-12-02T11:50:46.699Z,99758.81
2018-12-02T11:53:18.903Z,99772.86
2018-12-02T11:55:47.713Z,99767.63
2018-12-02T11:58:15.939Z,99773.63
2018-12-02T12:03:47.442Z,99772.58
2018-12-02T12:08:55.457Z,99776.44
2018-12-02T12:11:25.355Z,99768.05
2018-12-02T12:13:56.068Z,99772.84
2018-12-02T12:16:25.993Z,99763.31
2018-12-02T12:18:57.373Z,99779.34
2018-12-02T12:21:27.007Z,99785.73
2018-12-02T12:23:55.031Z,99783.22
2018-12-02T12:26:23.102Z,99778.91
2018-12-02T12:28:51.156Z,99775.48
2018-12-02T12:31:19.266Z,99782.50
2018-12-02T12:33:48.866Z,99789.33
2018-12-02T12:36:16.912Z,99781.22
2018-12-02T12:38:45.024Z,99783.70
2018-12-02T12:41:13.120Z,99788.50
2018-12-02T12:43:41.537Z,99791.30
2018-12-02T12:46:10.508Z,99792.13
2018-12-02T12:48:38.711Z,99790.03
2018-12-02T12:51:08.029Z,99794.25
2018-12-02T12:53:37.966Z,99796.13
2018-12-02T12:56:06.363Z,99793.94
2018-12-02T12:58:38.499Z,99790.59
2018-12-02T13:01:06.535Z,99793.11
2018-12-02T13:03:34.633Z,99794.02
2018-12-02T13:06:02.660Z,99797.17
2018-12-02T13:08:31.488Z,99798.16
2018-12-02T13:10:59.795Z,99802.13
2018-12-02T13:13:27.859Z,99800.35
2018-12-02T13:15:55.954Z,99806.30
2018-12-02T13:18:24.001Z,99808.88
2018-12-02T13:20:52.742Z,99805.28
2018-12-02T13:23:20.870Z,99810.17
2018-12-02T13:25:49.000Z,99809.63
2018-12-02T13:28:17.060Z,99813.66
2018-12-02T13:30:46.079Z,99815.67
2018-12-02T13:33:14.171Z,99821.15
2018-12-02T13:35:42.283Z,99814.15
2018-12-02T13:38:10.368Z,99819.89
2018-12-02T13:40:39.195Z,99822.67
2018-12-02T13:43:12.218Z,99829.07
2018-12-02T13:45:40.305Z,99839.97
2018-12-02T13:48:08.307Z,99838.00
2018-12-02T13:53:15.458Z,99841.64
2018-12-02T13:55:43.531Z,99849.80
2018-12-02T13:58:11.589Z,99856.34
2018-12-02T14:00:40.309Z,99850.80
2018-12-02T14:03:08.948Z,99851.50
2018-12-02T14:05:38.318Z,99856.79
2018-12-02T14:08:06.432Z,99851.73
2018-12-02T14:10:34.490Z,99863.36
2018-12-02T14:13:37.923Z,99858.50
2018-12-02T14:16:40.035Z,99871.87
2018-12-02T14:19:09.763Z,99869.83
2018-12-02T14:21:38.060Z,99861.88
2018-12-02T14:24:08.163Z,99878.98
2018-12-02T14:26:36.524Z,99868.64
2018-12-02T14:29:10.745Z,99876.66
2018-12-02T14:31:40.279Z,99881.41
2018-12-02T14:34:14.632Z,99882.09
2018-12-02T14:36:44.131Z,99880.27
2018-12-02T14:39:12.676Z,99883.53
2018-12-02T14:41:40.842Z,99885.00
2018-12-02T14:44:08.882Z,99891.91
2018-12-02T14:46:37.131Z,99887.49
2018-12-02T14:49:05.548Z,99889.48
2018-12-02T14:51:33.671Z,99885.39
2018-12-02T14:54:01.708Z,99886.30
2018-12-02T14:56:29.899Z,99882.41
2018-12-02T14:59:00.532Z,99876.63
2018-12-02T15:01:28.586Z,99877.36
2018-12-02T15:03:56.631Z,99892.84
2018-12-02T15:06:24.692Z,99886.08
2018-12-02T15:08:52.795Z,99881.66
2018-12-02T15:11:20.872Z,99881.91
2018-12-02T15:13:49.330Z,99883.97
2018-12-02T15:16:18.922Z,99880.98
2018-12-02T15:18:47.307Z,99887.17
2018-12-02T15:21:16.289Z,99870.52
2018-12-02T15:23:44.329Z,99879.33
2018-12-02T15:26:12.407Z,99885.20
2018-12-02T15:28:40.450Z,99887.72
2018-12-02T15:31:08.523Z,99893.44
2018-12-02T15:33:37.766Z,99892.39
2018-12-02T15:36:20.206Z,99903.69
2018-12-02T15:38:48.371Z,99895.95
2018-12-02T15:41:16.741Z,99899.66
2018-12-02T15:43:44.863Z,99893.16
2018-12-02T15:46:12.950Z,99897.78
2018-12-02T15:48:42.041Z,99898.70
2018-12-02T15:51:10.165Z,99903.19
2018-12-02T15:53:38.199Z,99900.56
2018-12-02T15:56:06.235Z,99896.45
2018-12-02T15:58:36.272Z,99897.45
2018-12-02T16:01:04.383Z,99898.70
2018-12-02T16:03:32.471Z,99898.47
2018-12-02T16:06:00.539Z,99900.94
2018-12-02T16:08:28.604Z,99906.62
2018-12-02T16:10:58.736Z,99903.59
2018-12-02T16:13:27.083Z,99899.12
2018-12-02T16:15:56.327Z,99906.28
2018-12-02T16:18:24.431Z,99903.67
2018-12-02T16:20:54.340Z,99903.92
2018-12-02T16:23:28.647Z,99907.34
2018-12-02T16:25:57.945Z,99903.63
2018-12-02T16:28:26.770Z,99900.70
2018-12-02T16:30:55.331Z,99899.42
2018-12-02T16:33:23.561Z,99902.18
2018-12-02T16:35:54.081Z,99902.53
2018-12-02T16:38:22.193Z,99902.58
2018-12-02T16:40:50.357Z,99897.45
2018-12-02T16:43:18.468Z,99892.33
2018-12-02T16:45:46.627Z,99894.11
2018-12-02T16:48:16.314Z,99906.29
2018-12-02T16:50:45.060Z,99913.52
2018-12-02T16:53:15.425Z,99916.63
2018-12-02T16:55:46.107Z,99908.30
2018-12-02T16:58:17.445Z,99909.67
2018-12-02T17:00:53.600Z,99904.05
2018-12-02T17:03:21.696Z,99908.63
2018-12-02T17:05:53.910Z,99908.36
2018-12-02T17:08:21.951Z,99913.80
2018-12-02T17:10:50.595Z,99909.98
2018-12-02T17:13:18.160Z,99922.34
2018-12-02T17:15:46.287Z,99911.73
2018-12-02T17:18:14.357Z,99911.08
2018-12-02T17:20:42.787Z,99913.55
2018-12-02T17:23:10.833Z,99909.83
2018-12-02T17:25:38.888Z,99910.06
2018-12-02T17:28:11.311Z,99913.31
2018-12-02T17:30:41.618Z,99915.74
2018-12-02T17:33:10.550Z,99920.54
2018-12-02T17:35:38.700Z,99918.54
2018-12-02T17:38:06.877Z,99931.94
2018-12-02T17:40:35.593Z,99920.18
2018-12-02T17:43:03.779Z,99929.14
2018-12-02T17:45:32.039Z,99930.75
2018-12-02T17:48:00.141Z,99930.09
2018-12-02T17:50:29.680Z,99933.70
2018-12-02T17:52:58.799Z,99932.98
2018-12-02T17:55:26.892Z,99927.77
2018-12-02T17:57:54.955Z,99925.07
2018-12-02T18:00:24.942Z,99924.84
2018-12-02T18:02:58.870Z,99928.95
2018-12-02T18:05:28.139Z,99923.16
2018-12-02T18:07:58.083Z,99926.55
2018-12-02T18:10:26.123Z,99927.04
2018-12-02T18:12:54.247Z,99938.77
2018-12-02T18:15:22.447Z,99927.11
2018-12-02T18:17:50.519Z,99939.92
2018-12-02T18:20:18.880Z,99935.19
2018-12-02T18:22:47.072Z,99940.77
2018-12-02T18:25:16.562Z,99940.05
2018-12-02T18:27:44.934Z,99945.20
2018-12-02T18:30:14.877Z,99941.92
2018-12-02T18:32:42.979Z,99937.39
2018-12-02T18:35:21.213Z,99935.88
2018-12-02T18:37:49.591Z,99936.20
2018-12-02T18:40:17.731Z,99934.92
2018-12-02T18:42:45.891Z,99932.50
2018-12-02T18:45:16.869Z,99931.31
2018-12-02T18:47:44.968Z,99938.23
2018-12-02T18:50:13.073Z,99934.23
2018-12-02T18:52:41.157Z,99934.16
2018-12-02T18:55:10.139Z,99927.42
2018-12-02T18:57:40.183Z,99935.77
2018-12-02T19:00:09.880Z,99931.57
2018-12-02T19:02:38.295Z,99927.86
2018-12-02T19:05:07.453Z,99927.04
2018-12-02T19:07:35.497Z,99933.45
2018-12-02T19:10:15.647Z,99936.34
2018-12-02T19:12:44.223Z,99937.16
2018-12-02T19:15:12.928Z,99928.42
2018-12-02T19:17:43.304Z,99935.31
2018-12-02T19:20:19.965Z,99940.41
2018-12-02T19:22:48.654Z,99934.56
2018-12-02T19:25:17.815Z,99930.75
2018-12-02T19:27:52.875Z,99936.67
2018-12-02T19:30:20.872Z,99941.79
2018-12-02T19:32:51.800Z,99941.43
2018-12-02T19:35:23.823Z,99932.95
2018-12-02T19:37:53.372Z,99932.66
2018-12-02T19:40:21.454Z,99929.54
2018-12-02T19:42:49.510Z,99932.09
2018-12-02T19:45:18.114Z,99936.07
2018-12-02T19:47:46.209Z,99929.44
2018-12-02T19:50:18.760Z,99932.09
2018-12-02T19:52:46.963Z,99929.17
2018-12-02T19:55:14.973Z,99935.80
2018-12-02T19:57:43.767Z,99931.38
2018-12-02T20:00:21.179Z,99934.66
2018-12-02T20:02:49.303Z,99928.12
2018-12-02T20:05:17.316Z,99933.28
2018-12-02T20:07:47.124Z,99930.36
2018-12-02T20:10:19.726Z,99937.69
2018-12-02T20:12:47.784Z,99935.48
2018-12-02T20:15:16.387Z,99931.30
2018-12-02T20:17:44.581Z,99935.02
2018-12-02T20:20:21.999Z,99929.21
2018-12-02T20:22:51.049Z,99926.05
2018-12-02T20:25:22.410Z,99928.57
2018-12-02T20:27:51.291Z,99926.51
2018-12-02T20:30:19.924Z,99932.79
2018-12-02T20:32:48.526Z,99925.59
2018-12-02T20:35:16.721Z,99924.08
2018-12-02T20:37:44.771Z,99924.08
2018-12-02T20:40:13.604Z,99930.58
2018-12-02T20:42:41.632Z,99923.67
2018-12-02T20:45:10.299Z,99919.28
2018-12-02T20:47:38.434Z,99920.55
2018-12-02T20:50:08.813Z,99918.59
2018-12-02T20:52:36.915Z,99918.68
2018-12-02T20:55:07.157Z,99912.09
2018-12-02T20:57:35.250Z,99916.48
2018-12-02T21:00:03.358Z,99916.72
2018-12-02T21:02:32.426Z,99923.95
2018-12-02T21:05:00.531Z,99926.83
2018-12-02T21:07:31.278Z,99918.33
2018-12-02T21:09:59.354Z,99918.22
2018-12-02T21:12:27.455Z,99919.19
2018-12-02T21:14:55.672Z,99914.74
2018-12-02T21:17:23.920Z,99917.41
2018-12-02T21:19:52.080Z,99918.73
2018-12-02T21:22:20.144Z,99917.72
2018-12-02T21:24:48.431Z,99918.17
2018-12-02T21:27:16.612Z,99920.28
2018-12-02T21:29:45.623Z,99913.31
2018-12-02T21:32:15.161Z,99915.71
2018-12-02T21:34:43.406Z,99914.23
2018-12-02T21:37:11.577Z,99908.03
2018-12-02T21:39:39.933Z,99903.73
2018-12-02T21:42:08.096Z,99897.15
2018-12-02T21:44:38.333Z,99898.70
2018-12-02T21:47:06.534Z,99892.43
2018-12-02T21:49:35.209Z,99897.19
2018-12-02T21:52:03.521Z,99898.10
2018-12-02T21:54:31.745Z,99899.52
2018-12-02T21:56:59.975Z,99893.25
2018-12-02T21:59:35.936Z,99891.28
2018-12-02T22:02:04.157Z,99889.54
2018-12-02T22:04:34.016Z,99888.68
2018-12-02T22:07:02.212Z,99887.53
2018-12-02T22:09:30.301Z,99890.09
2018-12-02T22:11:58.507Z,99893.61
2018-12-02T22:14:26.640Z,99898.60
2018-12-02T22:16:54.754Z,99892.01
2018-12-02T22:19:23.005Z,99884.70
2018-12-02T22:21:51.123Z,99882.05
2018-12-02T22:24:19.490Z,99882.27
2018-12-02T22:26:47.741Z,99880.21
2018-12-02T22:29:15.945Z,99873.08
2018-12-02T22:31:44.078Z,99881.69
2018-12-02T22:34:12.271Z,99882.64
2018-12-02T22:36:40.373Z,99884.52
2018-12-02T22:39:08.500Z,99880.54
2018-12-02T22:41:36.697Z,99880.53
2018-12-02T22:44:04.812Z,99889.60
2018-12-02T22:46:34.143Z,99879.25
2018-12-02T22:49:02.299Z,99875.14
2018-12-02T22:51:30.390Z,99876.23
2018-12-02T22:53:58.491Z,99875.41
2018-12-02T22:56:26.694Z,99876.59
2018-12-02T22:58:55.656Z,99875.27
2018-12-02T23:01:29.146Z,99883.78
2018-12-02T23:03:57.208Z,99887.02
2018-12-02T23:06:25.343Z,99886.30
2018-12-02T23:08:55.321Z,99885.91
2018-12-02T23:11:23.487Z,99878.51
2018-12-02T23:13:51.910Z,99886.92
2018-12-02T23:16:19.987Z,99884.91
2018-12-02T23:18:48.096Z,99880.38
2018-12-02T23:21:17.181Z,99881.66
2018-12-02T23:23:45.273Z,99880.05
2018-12-02T23:26:13.379Z,99877.84
2018-12-02T23:28:41.512Z,99888.41
2018-12-02T23:31:09.623Z,99874.22
2018-12-02T23:33:37.732Z,99881.69
2018-12-02T23:36:05.824Z,99883.20
2018-12-02T23:38:33.984Z,99891.80
2018-12-02T23:41:02.172Z,99881.34
2018-12-02T23:43:30.212Z,99883.95
2018-12-02T23:45:58.316Z,99881.69
2018-12-02T23:48:26.433Z,99878.06
2018-12-02T23:50:54.568Z,99883.63
2018-12-02T23:53:24.556Z,99881.13
2018-12-02T23:55:52.684Z,99872.48
2018-12-02T23:58:20.731Z,99878.42
